SCGM weather

Los Gomeros Airport
Rengo, O'Higgins Region, Chile

Public forecast

Using degrees Celsius for public forecast. Weather courtesy of forecast.io.

Closest aviation weather report (METAR) to Los Gomeros Airport

Closest report is De La Independencia Airport, 12.4 nm (23.0 km) NNE. Retrieved 2020/07/11 20:00 UTC (38 minutes ago):

SCRG 112000Z 20007KT 3000 HZ SCT020 OVC110 10/08 Q1021

Closest aviation forecast (TAF) to Los Gomeros Airport

Closest forecast is Comodoro Arturo Merino Benítez International Airport, 58.3 nm (108.0 km) N. Retrieved 2020/07/11 18:00 UTC (3 hours ago):

TAF SCEL 111616Z 1118/1218 18009KT 7000 SCT140 BKN210 TX15/1118Z TN05/1211Z BECMG 1201/1203 15004KT 4000 BR NSC TEMPO 1205/1214 VRB02KT 1200 BR BECMG 1215/1217 18008KT CAVOK